createdAt,value
2018-03-07T00:00:51.077Z,52.78
2018-03-07T00:03:18.616Z,53.60
2018-03-07T00:05:46.122Z,54.65
2018-03-07T00:08:13.723Z,49.60
2018-03-07T00:10:41.242Z,48.00
2018-03-07T00:13:08.782Z,53.13
2018-03-07T00:15:36.452Z,55.12
2018-03-07T00:18:03.952Z,48.40
2018-03-07T00:20:31.514Z,48.92
2018-03-07T00:22:59.075Z,52.10
2018-03-07T00:25:26.705Z,51.20
2018-03-07T00:27:54.309Z,54.17
2018-03-07T00:30:21.832Z,51.65
2018-03-07T00:32:49.429Z,51.65
2018-03-07T00:35:16.977Z,52.28
2018-03-07T00:37:44.480Z,49.17
2018-03-07T00:40:12.008Z,51.05
2018-03-07T00:42:39.588Z,51.47
2018-03-07T00:45:07.935Z,50.95
2018-03-07T00:47:36.221Z,51.47
2018-03-07T00:50:04.526Z,53.47
2018-03-07T00:52:32.055Z,52.42
2018-03-07T00:54:59.684Z,53.20
2018-03-07T00:57:27.233Z,55.53
2018-03-07T00:59:54.764Z,50.75
2018-03-07T01:02:22.297Z,52.92
2018-03-07T01:04:49.816Z,52.08
2018-03-07T01:07:17.341Z,52.08
2018-03-07T01:09:44.856Z,54.90
2018-03-07T01:12:12.716Z,54.85
2018-03-07T01:14:41.769Z,54.03
2018-03-07T01:17:09.603Z,51.45
2018-03-07T01:19:37.883Z,54.65
2018-03-07T01:22:06.170Z,54.78
2018-03-07T01:24:33.714Z,51.92
2018-03-07T01:27:01.258Z,52.92
2018-03-07T01:29:28.889Z,51.55
2018-03-07T01:31:56.438Z,55.25
2018-03-07T01:34:23.981Z,49.88
2018-03-07T01:36:51.488Z,52.65
2018-03-07T01:39:18.998Z,54.10
2018-03-07T01:41:46.528Z,51.33
2018-03-07T01:44:14.091Z,49.92
2018-03-07T01:46:42.370Z,55.45
2018-03-07T01:49:10.656Z,59.65
2018-03-07T01:51:49.864Z,54.65
2018-03-07T01:54:17.382Z,57.22
2018-03-07T01:56:44.901Z,51.22
2018-03-07T01:59:13.197Z,48.87
2018-03-07T02:01:40.706Z,57.95
2018-03-07T02:04:08.220Z,61.92
2018-03-07T02:06:35.717Z,57.90
2018-03-07T02:09:03.268Z,57.35
2018-03-07T02:11:30.776Z,56.63
2018-03-07T02:13:59.071Z,60.05
2018-03-07T02:16:26.599Z,52.90
2018-03-07T02:18:54.871Z,58.30
2018-03-07T02:21:23.178Z,58.40
2018-03-07T02:23:50.685Z,55.20
2018-03-07T02:26:18.195Z,52.65
2018-03-07T02:28:45.732Z,55.80
2018-03-07T02:31:14.027Z,58.63
2018-03-07T02:33:41.532Z,51.35
2018-03-07T02:39:07.707Z,54.25
2018-03-07T02:41:35.214Z,57.83
2018-03-07T02:44:02.734Z,52.33
2018-03-07T02:46:30.266Z,53.50
2018-03-07T02:48:57.788Z,53.17
2018-03-07T02:51:25.322Z,65.43
2018-03-07T02:53:52.899Z,54.20
2018-03-07T02:56:21.171Z,56.70
2018-03-07T02:58:49.255Z,61.75
2018-03-07T03:01:16.781Z,62.38
2018-03-07T03:03:44.288Z,60.30
2018-03-07T03:06:11.805Z,56.90
2018-03-07T03:08:40.190Z,61.13
2018-03-07T03:11:07.736Z,63.70
2018-03-07T03:13:36.009Z,64.65
2018-03-07T03:16:04.296Z,64.35
2018-03-07T03:18:31.826Z,72.93
2018-03-07T03:20:59.355Z,60.90
2018-03-07T03:23:26.865Z,63.20
2018-03-07T03:25:55.142Z,61.72
2018-03-07T03:28:23.467Z,64.30
2018-03-07T03:30:51.012Z,63.90
2018-03-07T03:33:18.533Z,65.57
2018-03-07T03:35:46.053Z,58.08
2018-03-07T03:38:13.570Z,60.28
2018-03-07T03:40:41.079Z,64.10
2018-03-07T03:43:08.592Z,65.65
2018-03-07T03:45:36.870Z,62.75
2018-03-07T03:48:04.415Z,68.50
2018-03-07T03:50:31.922Z,57.00
2018-03-07T03:52:59.487Z,55.95
2018-03-07T03:55:27.017Z,67.10
2018-03-07T03:57:54.533Z,66.03
2018-03-07T04:00:22.062Z,61.05
2018-03-07T04:02:49.586Z,61.88
2018-03-07T04:05:17.095Z,61.30
2018-03-07T04:07:44.745Z,62.53
2018-03-07T04:10:12.343Z,60.38
2018-03-07T04:12:39.866Z,65.80
2018-03-07T04:15:07.393Z,64.43
2018-03-07T04:17:35.675Z,62.25
2018-03-07T04:20:03.189Z,58.70
2018-03-07T04:22:30.734Z,65.32
2018-03-07T04:24:58.240Z,65.05
2018-03-07T04:27:26.519Z,60.85
2018-03-07T04:29:54.793Z,59.45
2018-03-07T04:32:23.094Z,52.75
2018-03-07T04:34:50.612Z,58.20
2018-03-07T04:37:18.166Z,57.88
2018-03-07T04:39:45.694Z,59.70
2018-03-07T04:42:13.245Z,60.45
2018-03-07T04:44:40.785Z,56.47
2018-03-07T04:47:08.291Z,61.78
2018-03-07T04:49:35.849Z,58.10
2018-03-07T04:52:03.381Z,55.40
2018-03-07T04:54:30.940Z,58.97
2018-03-07T04:56:58.516Z,53.17
2018-03-07T04:59:26.043Z,56.92
2018-03-07T05:01:53.574Z,58.20
2018-03-07T05:04:21.855Z,61.75
2018-03-07T05:06:50.139Z,53.70
2018-03-07T05:09:18.415Z,59.50
2018-03-07T05:11:46.739Z,65.55
2018-03-07T05:14:14.247Z,64.55
2018-03-07T05:16:41.772Z,61.58
2018-03-07T05:19:09.279Z,64.28
2018-03-07T05:21:36.800Z,66.05
2018-03-07T05:24:04.293Z,58.58
2018-03-07T05:26:31.821Z,59.95
2018-03-07T05:28:59.346Z,55.30
2018-03-07T05:31:26.948Z,55.30
2018-03-07T05:33:55.265Z,63.10
2018-03-07T05:36:22.772Z,63.03
2018-03-07T05:38:50.282Z,56.67
2018-03-07T05:41:17.790Z,55.28
2018-03-07T05:43:45.308Z,54.42
2018-03-07T05:46:12.840Z,54.85
2018-03-07T05:48:40.347Z,55.10
2018-03-07T05:51:07.888Z,55.08
2018-03-07T05:53:35.449Z,56.47
2018-03-07T05:56:02.982Z,60.72
2018-03-07T05:58:31.281Z,58.25
2018-03-07T06:00:58.820Z,58.15
2018-03-07T06:03:27.100Z,63.65
2018-03-07T06:05:54.620Z,61.97
2018-03-07T06:08:22.139Z,59.20
2018-03-07T06:10:49.656Z,61.70
2018-03-07T06:13:17.167Z,60.28
2018-03-07T06:15:44.669Z,62.58
2018-03-07T06:18:12.190Z,59.92
2018-03-07T06:20:39.702Z,55.75
2018-03-07T06:23:07.250Z,59.65
2018-03-07T06:25:34.772Z,50.67
2018-03-07T06:28:02.275Z,54.30
2018-03-07T06:30:29.801Z,56.00
2018-03-07T06:32:57.310Z,52.30
2018-03-07T06:35:25.580Z,61.08
2018-03-07T06:37:53.897Z,51.60
2018-03-07T06:40:21.925Z,55.42
2018-03-07T06:42:51.110Z,56.33
2018-03-07T06:45:18.652Z,61.08
2018-03-07T06:47:46.230Z,50.47
2018-03-07T06:50:13.803Z,54.42
2018-03-07T06:52:42.084Z,60.78
2018-03-07T06:55:10.468Z,53.33
2018-03-07T06:57:37.980Z,61.13
2018-03-07T07:00:05.497Z,60.78
2018-03-07T07:02:33.013Z,50.05
2018-03-07T07:05:00.533Z,55.28
2018-03-07T07:07:28.166Z,54.72
2018-03-07T07:09:55.823Z,54.17
2018-03-07T07:12:23.330Z,54.65
2018-03-07T07:14:50.836Z,56.53
2018-03-07T07:17:19.123Z,59.47
2018-03-07T07:19:47.404Z,57.72
2018-03-07T07:22:15.834Z,49.42
2018-03-07T07:24:43.487Z,58.08
2018-03-07T07:27:11.102Z,56.37
2018-03-07T07:29:38.654Z,49.65
2018-03-07T07:32:06.983Z,56.03
2018-03-07T07:34:34.525Z,50.63
2018-03-07T07:37:02.039Z,60.63
2018-03-07T07:39:29.592Z,55.33
2018-03-07T07:41:57.116Z,53.25
2018-03-07T07:44:24.646Z,56.60
2018-03-07T07:46:52.955Z,62.97
2018-03-07T07:49:20.490Z,57.85
2018-03-07T07:51:48.005Z,63.17
2018-03-07T07:54:15.536Z,67.40
2018-03-07T07:56:43.111Z,64.95
2018-03-07T07:59:10.694Z,65.70
2018-03-07T08:01:38.205Z,68.35
2018-03-07T08:04:06.302Z,72.35
2018-03-07T08:06:34.644Z,72.43
2018-03-07T08:09:02.153Z,70.05
2018-03-07T08:11:29.687Z,73.37
2018-03-07T08:13:57.349Z,79.65
2018-03-07T08:16:24.872Z,82.05
2018-03-07T08:18:53.222Z,86.93
2018-03-07T08:21:20.743Z,89.03
2018-03-07T08:23:48.252Z,84.53
2018-03-07T08:26:16.582Z,90.18
2018-03-07T08:28:44.103Z,87.88
2018-03-07T08:31:11.672Z,76.78
2018-03-07T08:33:39.207Z,72.55
2018-03-07T08:36:06.719Z,75.55
2018-03-07T08:38:34.369Z,86.85
2018-03-07T08:41:01.896Z,84.47
2018-03-07T08:43:30.299Z,87.80
2018-03-07T08:45:57.843Z,82.57
2018-03-07T08:48:25.543Z,82.25
2018-03-07T08:50:53.052Z,84.30
2018-03-07T08:53:20.622Z,76.45
2018-03-07T08:55:48.904Z,70.03
2018-03-07T08:58:17.186Z,71.90
2018-03-07T09:00:45.474Z,62.88
2018-03-07T09:03:13.111Z,71.18
2018-03-07T09:05:41.457Z,66.28
2018-03-07T09:08:08.963Z,65.85
2018-03-07T09:10:36.597Z,63.45
2018-03-07T09:13:04.156Z,73.80
2018-03-07T09:15:31.694Z,65.80
2018-03-07T09:17:59.220Z,63.45
2018-03-07T09:20:26.742Z,66.72
2018-03-07T09:22:55.044Z,52.72
2018-03-07T09:25:23.328Z,58.13
2018-03-07T09:27:50.842Z,59.88
2018-03-07T09:30:18.376Z,58.20
2018-03-07T09:32:45.916Z,61.50
2018-03-07T09:35:13.460Z,58.63
2018-03-07T09:37:41.030Z,63.95
2018-03-07T09:40:08.555Z,41.22
2018-03-07T09:42:37.689Z,51.50
2018-03-07T09:45:05.216Z,52.22
2018-03-07T09:47:32.718Z,50.60
2018-03-07T09:50:00.236Z,43.35
2018-03-07T09:52:27.770Z,45.65
2018-03-07T09:54:55.311Z,38.33
2018-03-07T09:57:22.834Z,40.33
2018-03-07T09:59:50.387Z,33.53
2018-03-07T10:02:17.927Z,30.60
2018-03-07T10:04:45.453Z,29.33
2018-03-07T10:07:12.971Z,33.70
2018-03-07T10:09:41.479Z,37.35
2018-03-07T10:12:09.166Z,32.55
2018-03-07T10:14:36.733Z,33.90
2018-03-07T10:17:04.234Z,37.42
2018-03-07T10:19:32.510Z,33.90
2018-03-07T10:22:00.793Z,27.25
2018-03-07T10:24:28.452Z,26.45
2018-03-07T10:26:56.739Z,16.62
2018-03-07T10:29:24.270Z,21.23
2018-03-07T10:31:51.800Z,24.10
2018-03-07T10:34:19.365Z,26.60
2018-03-07T10:36:46.866Z,23.67
2018-03-07T10:39:14.447Z,18.85
2018-03-07T10:41:42.131Z,21.20
2018-03-07T10:44:09.660Z,25.20
2018-03-07T10:46:37.203Z,25.48
2018-03-07T10:49:04.687Z,25.27
2018-03-07T10:51:32.236Z,26.67
2018-03-07T10:53:59.750Z,29.12
2018-03-07T10:56:27.774Z,30.73
2018-03-07T10:58:55.324Z,26.25
2018-03-07T11:01:22.860Z,18.73
2018-03-07T11:03:50.360Z,18.90
2018-03-07T11:06:17.889Z,30.52
2018-03-07T11:08:46.166Z,30.25
2018-03-07T11:11:14.479Z,23.38
2018-03-07T11:13:42.002Z,16.77
2018-03-07T11:16:09.544Z,29.23
2018-03-07T11:18:37.850Z,31.55
2018-03-07T11:21:06.154Z,24.80
2018-03-07T11:23:33.681Z,26.02
2018-03-07T11:26:01.214Z,22.95
2018-03-07T11:28:28.735Z,27.50
2018-03-07T11:30:56.344Z,25.35
2018-03-07T11:33:23.867Z,26.60
2018-03-07T11:35:51.367Z,27.05
2018-03-07T11:38:18.871Z,25.42
2018-03-07T11:40:46.408Z,22.20
2018-03-07T11:43:13.971Z,26.25
2018-03-07T11:45:41.499Z,28.87
2018-03-07T11:48:09.139Z,24.33
2018-03-07T11:50:37.525Z,20.00
2018-03-07T11:53:05.112Z,33.75
2018-03-07T11:55:33.384Z,22.05
2018-03-07T11:58:01.916Z,34.35
2018-03-07T12:00:29.480Z,28.60
2018-03-07T12:02:57.092Z,29.55
2018-03-07T12:05:24.695Z,27.98
2018-03-07T12:07:52.227Z,31.42
2018-03-07T12:10:20.603Z,29.90
2018-03-07T12:12:48.914Z,30.08
2018-03-07T12:15:16.445Z,27.13
2018-03-07T12:17:43.960Z,26.85
2018-03-07T12:20:11.463Z,19.15
2018-03-07T12:22:38.982Z,26.27
2018-03-07T12:25:06.497Z,27.10
2018-03-07T12:27:34.076Z,28.77
2018-03-07T12:30:01.585Z,31.15
2018-03-07T12:32:29.127Z,21.85
2018-03-07T12:34:56.644Z,28.52
2018-03-07T12:37:24.163Z,30.12
2018-03-07T12:39:51.663Z,27.40
2018-03-07T12:42:19.200Z,27.87
2018-03-07T12:44:46.718Z,29.90
2018-03-07T12:47:14.241Z,28.35
2018-03-07T12:49:41.749Z,25.05
2018-03-07T12:52:09.261Z,39.10
2018-03-07T12:54:36.763Z,30.40
2018-03-07T12:57:04.302Z,35.75
2018-03-07T12:59:31.844Z,35.15
2018-03-07T13:01:59.386Z,37.70
2018-03-07T13:04:26.939Z,25.98
2018-03-07T13:06:54.497Z,40.35
2018-03-07T13:09:22.006Z,35.17
2018-03-07T13:11:50.284Z,42.55
2018-03-07T13:14:17.880Z,38.97
2018-03-07T13:16:45.413Z,43.55
2018-03-07T13:19:12.953Z,39.45
2018-03-07T13:21:40.451Z,44.70
2018-03-07T13:24:08.137Z,38.88
2018-03-07T13:26:35.652Z,44.63
2018-03-07T13:29:03.186Z,45.22
2018-03-07T13:31:30.695Z,45.97
2018-03-07T13:33:58.235Z,49.20
2018-03-07T13:36:25.777Z,48.00
2018-03-07T13:38:53.335Z,47.17
2018-03-07T13:41:21.631Z,56.83
2018-03-07T13:43:49.143Z,37.85
2018-03-07T13:46:16.675Z,50.45
2018-03-07T13:48:44.208Z,56.60
2018-03-07T13:51:11.731Z,55.15
2018-03-07T13:53:39.250Z,53.63
2018-03-07T13:56:06.848Z,58.35
2018-03-07T13:58:34.360Z,62.33
2018-03-07T14:01:01.911Z,52.88
2018-03-07T14:03:29.467Z,54.88
2018-03-07T14:05:56.999Z,42.10
2018-03-07T14:08:24.551Z,47.35
2018-03-07T14:10:52.059Z,59.65
2018-03-07T14:13:19.591Z,54.17
2018-03-07T14:15:47.679Z,35.15
2018-03-07T14:18:16.018Z,56.05
2018-03-07T14:20:43.600Z,60.17
2018-03-07T14:23:11.186Z,31.35
2018-03-07T14:25:38.732Z,48.05
2018-03-07T14:28:07.020Z,59.60
2018-03-07T14:30:35.351Z,54.70
2018-03-07T14:33:02.993Z,63.72
2018-03-07T14:35:30.539Z,55.90
2018-03-07T14:37:58.856Z,44.00
2018-03-07T14:40:26.435Z,36.72
2018-03-07T14:42:53.947Z,57.30
2018-03-07T14:45:21.538Z,48.15
2018-03-07T14:47:49.102Z,59.30
2018-03-07T14:50:16.703Z,49.05
2018-03-07T14:52:44.213Z,53.20
2018-03-07T14:55:11.728Z,57.95
2018-03-07T14:57:40.012Z,72.18
2018-03-07T15:00:09.188Z,56.08
2018-03-07T15:02:36.815Z,65.95
2018-03-07T15:05:04.328Z,52.00
2018-03-07T15:07:32.006Z,60.20
2018-03-07T15:09:59.520Z,60.50
2018-03-07T15:12:27.054Z,62.42
2018-03-07T15:14:54.599Z,51.33
2018-03-07T15:17:22.109Z,65.70
2018-03-07T15:19:49.623Z,57.95
2018-03-07T15:22:17.158Z,66.00
2018-03-07T15:24:44.751Z,52.30
2018-03-07T15:27:12.277Z,54.47
2018-03-07T15:29:39.829Z,56.78
2018-03-07T15:32:08.118Z,58.35
2018-03-07T15:34:36.387Z,43.05
2018-03-07T15:37:04.680Z,66.55
2018-03-07T15:39:32.197Z,71.32
2018-03-07T15:41:59.710Z,48.47
2018-03-07T15:44:27.250Z,66.75
2018-03-07T15:46:54.750Z,66.00
2018-03-07T15:49:22.265Z,59.55
2018-03-07T16:09:08.393Z,45.22
2018-03-07T16:11:35.906Z,39.35
2018-03-07T16:14:03.422Z,57.58
2018-03-07T16:16:30.922Z,55.92
2018-03-07T16:18:58.476Z,73.75
2018-03-07T16:21:26.005Z,71.28
2018-03-07T16:23:53.515Z,65.55
2018-03-07T16:26:21.945Z,38.20
2018-03-07T16:28:50.172Z,59.97
2018-03-07T16:31:17.696Z,56.58
2018-03-07T16:33:45.267Z,54.78
2018-03-07T16:36:12.810Z,56.00
2018-03-07T16:38:40.353Z,51.95
2018-03-07T16:41:07.883Z,61.13
2018-03-07T16:43:35.402Z,58.28
2018-03-07T16:46:03.016Z,49.35
2018-03-07T16:48:30.562Z,57.67
2018-03-07T16:50:58.855Z,50.60
2018-03-07T16:53:26.375Z,44.05
2018-03-07T16:55:54.023Z,51.33
2018-03-07T16:58:21.617Z,41.28
2018-03-07T17:00:49.921Z,58.38
2018-03-07T17:03:17.526Z,53.42
2018-03-07T17:05:45.051Z,59.88
2018-03-07T17:08:12.601Z,54.25
2018-03-07T17:10:40.222Z,47.58
2018-03-07T17:13:07.761Z,57.42
2018-03-07T17:15:35.327Z,67.40
2018-03-07T17:18:02.852Z,71.32
2018-03-07T17:20:30.388Z,67.50
2018-03-07T17:22:57.898Z,82.88
2018-03-07T17:25:25.439Z,63.53
2018-03-07T17:27:52.996Z,61.03
2018-03-07T17:30:20.515Z,69.50
2018-03-07T17:32:48.831Z,71.78
2018-03-07T17:35:16.347Z,74.50
2018-03-07T17:37:44.626Z,78.18
2018-03-07T17:40:12.957Z,77.00
2018-03-07T17:42:40.468Z,77.62
2018-03-07T17:45:08.042Z,72.72
2018-03-07T17:47:35.582Z,71.82
2018-03-07T17:50:03.181Z,67.03
2018-03-07T17:52:30.680Z,75.75
2018-03-07T17:54:58.239Z,61.15
2018-03-07T17:57:25.800Z,70.70
2018-03-07T17:59:53.335Z,68.40
2018-03-07T18:02:21.150Z,73.10
2018-03-07T18:04:48.694Z,44.42
2018-03-07T18:07:16.264Z,71.20
2018-03-07T18:09:43.798Z,69.60
2018-03-07T18:12:11.333Z,48.20
2018-03-07T18:14:38.900Z,68.68
2018-03-07T18:17:06.421Z,67.57
2018-03-07T18:19:38.049Z,59.17
2018-03-07T18:22:05.600Z,42.03
2018-03-07T18:24:33.098Z,71.85
2018-03-07T18:27:01.487Z,45.55
2018-03-07T18:29:29.028Z,55.15
2018-03-07T18:31:57.320Z,81.25
2018-03-07T18:34:24.852Z,78.45
2018-03-07T18:36:52.376Z,68.35
2018-03-07T18:39:19.909Z,74.68
2018-03-07T18:41:47.454Z,61.72
2018-03-07T18:44:15.004Z,52.65
2018-03-07T18:46:43.287Z,49.65
2018-03-07T18:49:11.567Z,72.43
2018-03-07T18:51:39.845Z,50.72
2018-03-07T18:54:08.071Z,53.47
2018-03-07T18:56:35.600Z,46.65
2018-03-07T18:59:03.136Z,72.75
2018-03-07T19:01:30.664Z,65.72
2018-03-07T19:03:58.268Z,64.25
2018-03-07T19:06:25.797Z,70.15
2018-03-07T19:08:53.313Z,63.95
2018-03-07T19:11:20.834Z,59.33
2018-03-07T19:13:49.133Z,67.47
2018-03-07T19:16:16.680Z,33.33
2018-03-07T19:18:44.962Z,61.05
2018-03-07T19:21:12.491Z,56.10
2018-03-07T19:23:40.012Z,53.13
2018-03-07T19:26:07.559Z,48.67
2018-03-07T19:28:35.212Z,62.03
2018-03-07T19:31:02.753Z,38.92
2018-03-07T19:33:30.288Z,38.63
2018-03-07T19:35:57.806Z,60.85
2018-03-07T19:38:25.352Z,65.03
2018-03-07T19:40:52.871Z,43.03
2018-03-07T19:43:21.205Z,51.13
2018-03-07T19:45:48.735Z,48.45
2018-03-07T19:48:16.279Z,51.67
2018-03-07T19:50:44.576Z,56.80
2018-03-07T19:53:12.116Z,47.60
2018-03-07T19:55:40.408Z,54.03
2018-03-07T19:58:07.961Z,62.45
2018-03-07T20:00:36.330Z,60.28
2018-03-07T20:03:03.861Z,44.63
2018-03-07T20:05:33.071Z,58.35
2018-03-07T20:08:00.976Z,51.92
2018-03-07T20:10:28.550Z,50.05
2018-03-07T20:12:56.099Z,54.03
2018-03-07T20:15:23.644Z,60.92
2018-03-07T20:17:51.957Z,39.95
2018-03-07T20:20:19.496Z,50.45
2018-03-07T20:22:48.854Z,57.33
2018-03-07T20:25:17.170Z,62.85
2018-03-07T20:27:44.704Z,66.30
2018-03-07T20:30:12.303Z,55.17
2018-03-07T20:32:39.837Z,63.38
2018-03-07T20:35:07.357Z,58.60
2018-03-07T20:37:34.914Z,59.13
2018-03-07T20:40:02.461Z,51.03
2018-03-07T20:42:30.074Z,66.93
2018-03-07T20:44:57.604Z,59.10
2018-03-07T20:47:25.135Z,47.30
2018-03-07T20:49:52.716Z,62.92
2018-03-07T20:52:20.237Z,46.67
2018-03-07T20:54:47.755Z,61.85
2018-03-07T20:57:15.297Z,68.15
2018-03-07T20:59:42.827Z,73.72
2018-03-07T21:02:10.345Z,52.17
2018-03-07T21:04:37.909Z,67.00
2018-03-07T21:07:06.343Z,67.87
2018-03-07T21:09:33.880Z,63.95
2018-03-07T21:12:01.395Z,84.10
2018-03-07T21:14:28.967Z,59.78
2018-03-07T21:16:57.283Z,72.22
2018-03-07T21:19:24.807Z,63.95
2018-03-07T21:21:52.344Z,57.20
2018-03-07T21:24:19.853Z,67.37
2018-03-07T21:26:47.363Z,72.78
2018-03-07T21:29:14.878Z,76.70
2018-03-07T21:31:42.416Z,62.03
2018-03-07T21:34:10.942Z,62.35
2018-03-07T21:36:38.612Z,76.30
2018-03-07T21:39:06.123Z,66.37
2018-03-07T21:41:33.656Z,46.58
2018-03-07T21:44:01.179Z,60.88
2018-03-07T21:46:28.730Z,53.70
2018-03-07T21:48:56.411Z,63.92
2018-03-07T21:51:23.952Z,46.75
2018-03-07T21:53:51.471Z,58.80
2018-03-07T21:56:19.752Z,61.95
2018-03-07T21:58:47.266Z,64.87
2018-03-07T22:01:14.786Z,67.62
2018-03-07T22:03:42.346Z,62.15
2018-03-07T22:06:09.882Z,60.97
2018-03-07T22:08:38.189Z,63.75
2018-03-07T22:11:05.716Z,72.87
2018-03-07T22:13:33.418Z,64.07
2018-03-07T22:16:00.945Z,70.93
2018-03-07T22:18:29.243Z,90.00
2018-03-07T22:20:56.755Z,74.78
2018-03-07T22:23:24.280Z,84.53
2018-03-07T22:25:51.824Z,93.20
2018-03-07T22:28:19.368Z,60.15
2018-03-07T22:30:46.942Z,88.43
2018-03-07T22:33:14.503Z,87.00
2018-03-07T22:35:42.021Z,92.10
2018-03-07T22:38:09.559Z,55.78
2018-03-07T22:40:37.098Z,100.25
2018-03-07T22:43:04.662Z,88.25
2018-03-07T22:45:32.192Z,77.10
2018-03-07T22:47:59.773Z,96.40
2018-03-07T22:50:27.348Z,92.57
2018-03-07T22:52:54.882Z,97.32
2018-03-07T22:55:22.468Z,96.65
2018-03-07T22:57:50.078Z,92.62
2018-03-07T23:00:30.208Z,84.05
2018-03-07T23:02:57.751Z,101.03
2018-03-07T23:05:25.264Z,97.43
2018-03-07T23:07:53.538Z,95.15
2018-03-07T23:10:21.835Z,94.30
2018-03-07T23:12:49.418Z,88.12
2018-03-07T23:15:17.004Z,98.75
2018-03-07T23:17:44.541Z,87.88
2018-03-07T23:20:12.069Z,82.75
2018-03-07T23:22:40.351Z,77.47
2018-03-07T23:25:07.898Z,106.87
2018-03-07T23:27:35.438Z,70.50
2018-03-07T23:30:02.959Z,99.60
2018-03-07T23:32:30.494Z,95.32
2018-03-07T23:34:58.028Z,79.45
2018-03-07T23:37:26.356Z,84.50
2018-03-07T23:39:53.913Z,96.82
2018-03-07T23:42:21.425Z,105.30
2018-03-07T23:44:49.724Z,103.78
2018-03-07T23:47:17.258Z,70.00
2018-03-07T23:49:44.806Z,99.30
2018-03-07T23:52:12.315Z,95.68
2018-03-07T23:54:39.857Z,86.22
2018-03-07T23:57:07.429Z,91.72
2018-03-07T23:59:34.955Z,85.72
